Time;durP1;ratioP1;P1;durP2;ratioP2;P2;SDS_P1;SDS_P2;PMS_P1;PMS_P2;Temp;Humidity;BMP_temperature;BMP_pressure;BME280_temperature;BME280_humidity;BME280_pressure;Samples;Min_cycle;Max_cycle;Signal;HPM_P1;HPM_P2
2023/04/02 00:01:17;;;;;;;;;;;;;;;;;;5134621;27;2075;-40
2023/04/02 00:03:44;;;;;;;;;;;;;;;;;;5134549;27;1955;-40
2023/04/02 00:06:31;;;;;;;;;;;;;;;;;;5134408;27;1918;-40
2023/04/02 00:09:22;;;;;;;;;;;;;;;;;;5135006;27;1937;-40
2023/04/02 00:11:54;;;;;;;;;;;;;;;;;;5129394;27;1846;-40
2023/04/02 00:14:23;;;;;;;;;;;;;;;;;;5134583;27;1894;-39
2023/04/02 00:16:51;;;;;;;;;;;;;;;;;;5134314;27;1877;-40
2023/04/02 00:19:23;;;;;;;;;;;;;;;;;;5134163;27;1843;-39
2023/04/02 00:21:52;;;;;;;;;;;;;;;;;;5134408;27;1774;-40
2023/04/02 00:24:20;;;;;;;;;;;;;;;;;;5134119;27;2001;-40
2023/04/02 00:26:48;;;;;;;;;;;;;;;;;;5134148;27;1929;-40
2023/04/02 00:29:17;;;;;;;;;;;;;;;;;;5134084;27;2127;-40
2023/04/02 00:31:46;;;;;;;;;;;;;;;;;;5133789;27;2052;-41
2023/04/02 00:34:26;;;;;;;;;;;;;;;;;;5134082;27;2027;-46
2023/04/02 00:36:53;;;;;;;;;;;;;;;;;;5134148;27;2034;-50
2023/04/02 00:39:23;;;;;;;;;;;;;;;;;;5134046;27;1976;-40
2023/04/02 00:42:03;;;;;;;;;;;;;;;;;;5133966;27;1988;-41
2023/04/02 00:44:41;;;;;;;;;;;;;;;;;;5133771;27;1864;-40
2023/04/02 00:47:15;;;;;;;;;;;;;;;;;;5133338;27;2005;-42
2023/04/02 00:49:43;;;;;;;;;;;;;;;;;;5133902;27;2324;-41
2023/04/02 00:52:12;;;;;;;;;;;;;;;;;;5132519;27;2300;-40
2023/04/02 00:54:42;;;;;;;;;;;;;;;;;;5133508;27;1970;-39
2023/04/02 00:57:19;;;;;;;;;;;;;;;;;;5150448;27;1812;-40
2023/04/02 00:59:58;;;;;;;;;;;;;;;;;;5154220;27;1882;-40
2023/04/02 01:02:27;;;;;;;;;;;;;;;;;;5154431;27;1930;-39
2023/04/02 01:05:18;;;;;;;;;;;;;;;;;;5154379;27;1812;-40
2023/04/02 01:07:58;;;;;;;;;;;;;;;;;;5148826;27;2115;-41
2023/04/02 01:10:37;;;;;;;;;;;;;;;;;;5135815;27;2362;-42
2023/04/02 01:13:05;;;;;;;;;;;;;;;;;;5135379;27;2060;-40
2023/04/02 01:15:35;;;;;;;;;;;;;;;;;;5153797;27;1903;-40
2023/04/02 01:18:06;;;;;;;;;;;;;;;;;;5135201;27;2220;-39
2023/04/02 01:20:33;;;;;;;;;;;;;;;;;;5153853;27;1933;-40
2023/04/02 01:23:04;;;;;;;;;;;;;;;;;;5153553;27;1885;-40
2023/04/02 01:25:40;;;;;;;;;;;;;;;;;;5153939;27;2066;-39
2023/04/02 01:28:28;;;;;;;;;;;;;;;;;;5153526;27;1903;-40
2023/04/02 01:30:56;;;;;;;;;;;;;;;;;;5135002;27;2185;-40
2023/04/02 01:33:31;;;;;;;;;;;;;;;;;;5153844;27;1856;-39
2023/04/02 01:36:17;;;;;;;;;;;;;;;;;;5134890;27;1911;-40
2023/04/02 01:39:05;;;;;;;;;;;;;;;;;;5135126;27;2589;-40
2023/04/02 01:41:35;;;;;;;;;;;;;;;;;;5153425;27;2023;-41
2023/04/02 01:44:06;;;;;;;;;;;;;;;;;;5134892;27;2217;-44
2023/04/02 01:46:37;;;;;;;;;;;;;;;;;;5134600;27;1834;-40
2023/04/02 01:49:16;;;;;;;;;;;;;;;;;;5134593;27;2030;-40
2023/04/02 01:51:45;;;;;;;;;;;;;;;;;;5153482;27;2092;-39
2023/04/02 01:54:16;;;;;;;;;;;;;;;;;;5134519;27;1925;-40
2023/04/02 01:56:45;;;;;;;;;;;;;;;;;;5139818;27;1972;-40
2023/04/02 01:59:14;;;;;;;;;;;;;;;;;;5113851;27;1881;-42
2023/04/02 02:01:43;;;;;;;;;;;;;;;;;;5132199;27;1984;-39
2023/04/02 02:04:12;;;;;;;;;;;;;;;;;;5113511;27;1932;-41
2023/04/02 02:06:40;;;;;;;;;;;;;;;;;;5113937;27;2249;-40
2023/04/02 02:09:11;;;;;;;;;;;;;;;;;;5113648;27;1933;-47
2023/04/02 02:11:39;;;;;;;;;;;;;;;;;;5113585;27;1807;-41
2023/04/02 02:14:13;;;;;;;;;;;;;;;;;;5132424;27;2124;-40
2023/04/02 02:16:40;;;;;;;;;;;;;;;;;;5113590;27;1963;-40
2023/04/02 02:19:31;;;;;;;;;;;;;;;;;;5113596;27;2008;-41
2023/04/02 02:22:05;;;;;;;;;;;;;;;;;;5108242;27;1945;-40
2023/04/02 02:24:34;;;;;;;;;;;;;;;;;;5136063;27;1953;-44
2023/04/02 02:27:07;;;;;;;;;;;;;;;;;;5152558;27;2170;-40
2023/04/02 02:29:36;;;;;;;;;;;;;;;;;;5152867;27;1931;-40
2023/04/02 02:32:06;;;;;;;;;;;;;;;;;;5134193;27;2289;-41
2023/04/02 02:34:40;;;;;;;;;;;;;;;;;;5134117;27;2012;-40
2023/04/02 02:37:16;;;;;;;;;;;;;;;;;;5152490;27;2007;-41
2023/04/02 02:39:46;;;;;;;;;;;;;;;;;;5133914;27;1973;-40
2023/04/02 02:42:32;;;;;;;;;;;;;;;;;;5133816;27;2397;-41
2023/04/02 02:45:00;;;;;;;;;;;;;;;;;;5152410;27;1911;-45
2023/04/02 02:47:29;;;;;;;;;;;;;;;;;;5152422;27;2046;-40
2023/04/02 02:50:02;;;;;;;;;;;;;;;;;;5133539;27;2250;-43
2023/04/02 02:52:31;;;;;;;;;;;;;;;;;;5152359;27;1928;-40
2023/04/02 02:55:16;;;;;;;;;;;;;;;;;;5134048;27;2109;-40
2023/04/02 02:58:08;;;;;;;;;;;;;;;;;;5113107;28;1927;-40
2023/04/02 03:00:49;;;;;;;;;;;;;;;;;;5113033;28;1947;-46
2023/04/02 03:03:20;;;;;;;;;;;;;;;;;;5113337;28;2029;-40
2023/04/02 03:05:53;;;;;;;;;;;;;;;;;;5112953;28;1852;-40
2023/04/02 03:08:27;;;;;;;;;;;;;;;;;;5128360;27;1999;-40
2023/04/02 03:10:55;;;;;;;;;;;;;;;;;;5133970;27;1852;-49
2023/04/02 03:13:25;;;;;;;;;;;;;;;;;;5152222;27;1919;-40
2023/04/02 03:15:59;;;;;;;;;;;;;;;;;;5137190;27;2465;-46
2023/04/02 03:18:36;;;;;;;;;;;;;;;;;;5137737;27;2061;-42
2023/04/02 03:21:15;;;;;;;;;;;;;;;;;;5156269;27;1967;-40
2023/04/02 03:23:46;;;;;;;;;;;;;;;;;;5136223;27;2021;-40
2023/04/02 03:26:18;;;;;;;;;;;;;;;;;;5155201;27;2088;-40
2023/04/02 03:28:54;;;;;;;;;;;;;;;;;;5133110;27;2055;-41
2023/04/02 03:31:25;;;;;;;;;;;;;;;;;;5135380;27;1719;-39
2023/04/02 03:34:07;;;;;;;;;;;;;;;;;;5135534;27;2024;-41
2023/04/02 03:36:42;;;;;;;;;;;;;;;;;;5116571;27;2004;-40
2023/04/02 03:39:32;;;;;;;;;;;;;;;;;;5116567;27;2027;-40
2023/04/02 03:42:08;;;;;;;;;;;;;;;;;;5116470;27;2145;-40
2023/04/02 03:44:38;;;;;;;;;;;;;;;;;;5116617;27;1694;-39
2023/04/02 03:47:15;;;;;;;;;;;;;;;;;;5116521;27;2379;-40
2023/04/02 03:49:46;;;;;;;;;;;;;;;;;;5116327;27;2044;-39
2023/04/02 03:52:19;;;;;;;;;;;;;;;;;;5116574;27;1930;-40
2023/04/02 03:54:46;;;;;;;;;;;;;;;;;;5134898;27;2158;-39
2023/04/02 03:57:42;;;;;;;;;;;;;;;;;;5116033;27;2016;-39
2023/04/02 04:00:15;;;;;;;;;;;;;;;;;;5133822;27;1836;-39
2023/04/02 04:02:51;;;;;;;;;;;;;;;;;;5116163;27;1941;-40
2023/04/02 04:05:27;;;;;;;;;;;;;;;;;;5116390;27;1822;-41
2023/04/02 04:07:59;;;;;;;;;;;;;;;;;;5116100;27;2213;-40
2023/04/02 04:10:28;;;;;;;;;;;;;;;;;;5116273;27;1679;-41
2023/04/02 04:13:15;;;;;;;;;;;;;;;;;;5134689;27;1956;-40
2023/04/02 04:15:51;;;;;;;;;;;;;;;;;;5115127;27;1860;-40
2023/04/02 04:18:33;;;;;;;;;;;;;;;;;;5134545;27;2089;-40
2023/04/02 04:21:14;;;;;;;;;;;;;;;;;;5134419;27;2124;-41
2023/04/02 04:23:49;;;;;;;;;;;;;;;;;;5115842;27;1827;-41
2023/04/02 04:26:34;;;;;;;;;;;;;;;;;;5115539;27;2593;-39
2023/04/02 04:29:05;;;;;;;;;;;;;;;;;;5134220;27;2031;-40
2023/04/02 04:31:38;;;;;;;;;;;;;;;;;;5115876;27;2032;-41
2023/04/02 04:34:28;;;;;;;;;;;;;;;;;;5115580;27;1971;-40
2023/04/02 04:37:00;;;;;;;;;;;;;;;;;;5115805;27;1948;-40
2023/04/02 04:39:46;;;;;;;;;;;;;;;;;;5115001;27;2247;-40
2023/04/02 04:42:28;;;;;;;;;;;;;;;;;;5115366;27;1909;-40
2023/04/02 04:45:07;;;;;;;;;;;;;;;;;;5115678;27;1946;-40
2023/04/02 04:47:37;;;;;;;;;;;;;;;;;;5114966;27;2000;-39
2023/04/02 04:50:14;;;;;;;;;;;;;;;;;;5115148;27;2012;-40
2023/04/02 04:52:42;;;;;;;;;;;;;;;;;;5115467;27;2028;-43
2023/04/02 04:55:41;;;;;;;;;;;;;;;;;;5115227;27;2043;-40
2023/04/02 04:58:08;;;;;;;;;;;;;;;;;;5115756;27;2193;-40
2023/04/02 05:00:36;;;;;;;;;;;;;;;;;;5115117;27;1721;-40
2023/04/02 05:03:12;;;;;;;;;;;;;;;;;;5115182;27;1965;-40
2023/04/02 05:05:40;;;;;;;;;;;;;;;;;;5131987;27;1861;-53
2023/04/02 05:08:12;;;;;;;;;;;;;;;;;;5131869;27;1974;-40
2023/04/02 05:10:46;;;;;;;;;;;;;;;;;;5133483;27;2149;-40
2023/04/02 05:13:43;;;;;;;;;;;;;;;;;;5132868;27;1885;-40
2023/04/02 05:16:23;;;;;;;;;;;;;;;;;;5098628;27;1937;-46
2023/04/02 05:19:20;;;;;;;;;;;;;;;;;;5131946;27;1846;-40
2023/04/02 05:21:52;;;;;;;;;;;;;;;;;;5116173;27;1992;-48
2023/04/02 05:24:43;;;;;;;;;;;;;;;;;;5144080;27;1998;-40
2023/04/02 05:27:20;;;;;;;;;;;;;;;;;;5127317;27;1905;-39
2023/04/02 05:29:50;;;;;;;;;;;;;;;;;;5135080;27;2166;-40
2023/04/02 05:32:22;;;;;;;;;;;;;;;;;;5134783;27;1797;-43
2023/04/02 05:34:52;;;;;;;;;;;;;;;;;;5134803;27;2212;-40
2023/04/02 05:37:27;;;;;;;;;;;;;;;;;;5152653;27;2004;-39
2023/04/02 05:39:55;;;;;;;;;;;;;;;;;;5135026;27;2075;-40
2023/04/02 05:42:29;;;;;;;;;;;;;;;;;;5134976;27;2014;-59
2023/04/02 05:45:06;;;;;;;;;;;;;;;;;;5134848;27;2125;-47
2023/04/02 05:47:39;;;;;;;;;;;;;;;;;;5134694;27;1807;-39
2023/04/02 05:50:36;;;;;;;;;;;;;;;;;;5134593;27;1985;-40
2023/04/02 05:53:13;;;;;;;;;;;;;;;;;;5129104;27;2025;-40
2023/04/02 05:55:58;;;;;;;;;;;;;;;;;;5153195;27;1929;-40
2023/04/02 05:58:33;;;;;;;;;;;;;;;;;;5134492;27;2059;-40
2023/04/02 06:01:32;;;;;;;;;;;;;;;;;;5141596;27;1671;-40
2023/04/02 06:04:20;;;;;;;;;;;;;;;;;;5133991;27;2003;-40
2023/04/02 06:06:55;;;;;;;;;;;;;;;;;;5134384;27;1843;-40
2023/04/02 06:09:30;;;;;;;;;;;;;;;;;;5134206;27;2243;-39
2023/04/02 06:12:26;;;;;;;;;;;;;;;;;;5134489;27;1850;-56
2023/04/02 06:14:54;;;;;;;;;;;;;;;;;;5115264;27;1999;-40
2023/04/02 06:17:26;;;;;;;;;;;;;;;;;;5134231;27;2009;-40
2023/04/02 06:19:56;;;;;;;;;;;;;;;;;;5134347;27;2050;-42
2023/04/02 06:22:23;;;;;;;;;;;;;;;;;;5152732;27;1962;-39
2023/04/02 06:24:58;;;;;;;;;;;;;;;;;;5134560;27;1950;-47
2023/04/02 06:27:26;;;;;;;;;;;;;;;;;;5152518;27;1905;-39
2023/04/02 06:29:58;;;;;;;;;;;;;;;;;;5152624;27;1918;-40
2023/04/02 06:32:28;;;;;;;;;;;;;;;;;;5134275;27;2030;-39
2023/04/02 06:34:56;;;;;;;;;;;;;;;;;;5152971;27;2020;-40
2023/04/02 06:37:36;;;;;;;;;;;;;;;;;;5133910;27;1946;-39
2023/04/02 06:40:20;;;;;;;;;;;;;;;;;;5133679;27;1941;-47
2023/04/02 06:42:49;;;;;;;;;;;;;;;;;;5152498;27;1819;-47
2023/04/02 06:45:33;;;;;;;;;;;;;;;;;;5133711;27;1792;-40
2023/04/02 06:48:16;;;;;;;;;;;;;;;;;;5134593;27;2038;-41
2023/04/02 06:51:02;;;;;;;;;;;;;;;;;;5138102;27;2091;-39
2023/04/02 06:53:38;;;;;;;;;;;;;;;;;;5137577;27;1886;-40
2023/04/02 06:56:19;;;;;;;;;;;;;;;;;;5134611;27;2064;-40
2023/04/02 06:58:46;;;;;;;;;;;;;;;;;;5117630;27;1905;-40
2023/04/02 07:01:20;;;;;;;;;;;;;;;;;;5135614;27;1976;-39
2023/04/02 07:03:48;;;;;;;;;;;;;;;;;;5117314;27;1967;-40
2023/04/02 07:06:21;;;;;;;;;;;;;;;;;;5135807;27;1960;-40
2023/04/02 07:08:51;;;;;;;;;;;;;;;;;;5117138;27;2157;-41
2023/04/02 07:11:21;;;;;;;;;;;;;;;;;;5117601;27;2168;-40
2023/04/02 07:13:51;;;;;;;;;;;;;;;;;;5135258;27;1925;-43
2023/04/02 07:16:26;;;;;;;;;;;;;;;;;;5116699;27;1912;-41
2023/04/02 07:18:54;;;;;;;;;;;;;;;;;;5117194;27;1991;-40
2023/04/02 07:21:23;;;;;;;;;;;;;;;;;;5116608;27;1964;-43
2023/04/02 07:23:51;;;;;;;;;;;;;;;;;;5116779;27;1936;-40
2023/04/02 07:26:19;;;;;;;;;;;;;;;;;;5135112;27;2134;-42
2023/04/02 07:28:46;;;;;;;;;;;;;;;;;;5135132;27;1917;-40
2023/04/02 07:31:18;;;;;;;;;;;;;;;;;;5135301;27;2001;-40
2023/04/02 07:33:46;;;;;;;;;;;;;;;;;;5134961;27;2135;-41
2023/04/02 07:36:14;;;;;;;;;;;;;;;;;;5128526;27;2405;-41
2023/04/02 07:38:42;;;;;;;;;;;;;;;;;;5147389;27;2067;-41
2023/04/02 07:41:09;;;;;;;;;;;;;;;;;;5155501;27;1935;-41
2023/04/02 07:43:37;;;;;;;;;;;;;;;;;;5155303;27;1979;-40
2023/04/02 07:46:05;;;;;;;;;;;;;;;;;;5153436;27;2006;-42
2023/04/02 07:48:32;;;;;;;;;;;;;;;;;;5149714;27;1922;-50
2023/04/02 07:51:02;;;;;;;;;;;;;;;;;;5134794;27;1892;-49
2023/04/02 07:53:31;;;;;;;;;;;;;;;;;;5134224;27;1755;-41
2023/04/02 07:56:00;;;;;;;;;;;;;;;;;;5134983;27;1919;-41
2023/04/02 07:58:28;;;;;;;;;;;;;;;;;;5135055;27;1887;-42
2023/04/02 08:00:56;;;;;;;;;;;;;;;;;;5133518;27;2046;-43
2023/04/02 08:03:23;;;;;;;;;;;;;;;;;;5134489;27;1923;-42
2023/04/02 08:05:54;;;;;;;;;;;;;;;;;;5134605;27;1594;-41
2023/04/02 08:08:23;;;;;;;;;;;;;;;;;;5133625;27;2117;-43
2023/04/02 08:10:50;;;;;;;;;;;;;;;;;;5134443;27;2072;-40
2023/04/02 08:13:17;;;;;;;;;;;;;;;;;;5134292;27;1992;-42
2023/04/02 08:15:44;;;;;;;;;;;;;;;;;;5133789;27;2187;-41
2023/04/02 08:18:12;;;;;;;;;;;;;;;;;;5134470;27;1942;-41
2023/04/02 08:20:39;;;;;;;;;;;;;;;;;;5134216;27;2113;-41
2023/04/02 08:23:15;;;;;;;;;;;;;;;;;;5133840;27;2139;-40
2023/04/02 08:25:43;;;;;;;;;;;;;;;;;;5134128;27;2107;-43
2023/04/02 08:28:10;;;;;;;;;;;;;;;;;;5134180;27;2225;-42
2023/04/02 08:30:38;;;;;;;;;;;;;;;;;;5132771;27;2002;-43
2023/04/02 08:33:05;;;;;;;;;;;;;;;;;;5132580;27;2043;-45
2023/04/02 08:35:33;;;;;;;;;;;;;;;;;;5133473;27;1726;-38
2023/04/02 08:38:00;;;;;;;;;;;;;;;;;;5133967;27;2118;-41
2023/04/02 08:40:38;;;;;;;;;;;;;;;;;;5134189;27;2072;-43
2023/04/02 08:43:24;;;;;;;;;;;;;;;;;;5133797;27;1924;-43
2023/04/02 08:46:06;;;;;;;;;;;;;;;;;;5132250;27;2050;-40
2023/04/02 08:48:36;;;;;;;;;;;;;;;;;;5131491;27;2125;-41
2023/04/02 08:51:04;;;;;;;;;;;;;;;;;;5131646;27;1832;-41
2023/04/02 08:53:33;;;;;;;;;;;;;;;;;;5131675;27;1963;-41
2023/04/02 08:56:08;;;;;;;;;;;;;;;;;;5138049;27;1808;-40
2023/04/02 08:58:40;;;;;;;;;;;;;;;;;;5152310;27;1869;-41
2023/04/02 09:01:23;;;;;;;;;;;;;;;;;;5137116;27;2082;-41
2023/04/02 09:03:53;;;;;;;;;;;;;;;;;;5132766;27;1942;-40
2023/04/02 09:06:20;;;;;;;;;;;;;;;;;;5131754;27;1934;-40
2023/04/02 09:08:48;;;;;;;;;;;;;;;;;;5133387;27;1996;-40
2023/04/02 09:11:23;;;;;;;;;;;;;;;;;;5132574;27;2051;-40
2023/04/02 09:13:57;;;;;;;;;;;;;;;;;;5114398;27;1983;-42
2023/04/02 09:16:34;;;;;;;;;;;;;;;;;;5133127;27;2101;-49
2023/04/02 09:19:01;;;;;;;;;;;;;;;;;;5132450;27;1906;-38
2023/04/02 09:21:39;;;;;;;;;;;;;;;;;;5133452;27;1877;-50
2023/04/02 09:24:10;;;;;;;;;;;;;;;;;;5132807;27;1962;-41
2023/04/02 09:26:38;;;;;;;;;;;;;;;;;;5132796;27;1944;-48
2023/04/02 09:29:11;;;;;;;;;;;;;;;;;;5132776;27;1964;-43
2023/04/02 09:31:52;;;;;;;;;;;;;;;;;;5133096;27;2057;-40
2023/04/02 09:34:28;;;;;;;;;;;;;;;;;;5132271;27;1960;-40
2023/04/02 09:36:55;;;;;;;;;;;;;;;;;;5133317;27;2058;-40
2023/04/02 09:39:25;;;;;;;;;;;;;;;;;;5132679;27;1709;-40
2023/04/02 09:41:52;;;;;;;;;;;;;;;;;;5132300;27;1963;-40
2023/04/02 09:44:31;;;;;;;;;;;;;;;;;;5132719;27;1743;-43
2023/04/02 09:47:03;;;;;;;;;;;;;;;;;;5132904;27;1941;-45
2023/04/02 09:49:37;;;;;;;;;;;;;;;;;;5132351;27;1982;-40
2023/04/02 09:52:10;;;;;;;;;;;;;;;;;;5132417;27;2004;-43
2023/04/02 09:54:41;;;;;;;;;;;;;;;;;;5132474;27;1884;-40
2023/04/02 09:57:22;;;;;;;;;;;;;;;;;;5113966;27;2336;-48
2023/04/02 10:00:11;;;;;;;;;;;;;;;;;;5132515;27;2077;-42
2023/04/02 10:03:06;;;;;;;;;;;;;;;;;;5132044;27;2080;-46
2023/04/02 10:05:34;;;;;;;;;;;;;;;;;;5132355;27;1896;-39
2023/04/02 10:08:14;;;;;;;;;;;;;;;;;;5132489;27;1931;-41
2023/04/02 10:10:43;;;;;;;;;;;;;;;;;;5131983;27;1984;-56
2023/04/02 10:13:49;;;;;;;;;;;;;;;;;;5131616;27;1935;-46
2023/04/02 10:16:21;;;;;;;;;;;;;;;;;;5088965;28;1952;-41
2023/04/02 10:18:50;;;;;;;;;;;;;;;;;;5089259;28;2178;-46
2023/04/02 10:21:20;;;;;;;;;;;;;;;;;;5112301;27;1983;-40
2023/04/02 10:23:47;;;;;;;;;;;;;;;;;;5132245;27;2083;-47
2023/04/02 10:26:14;;;;;;;;;;;;;;;;;;5132166;27;1921;-40
2023/04/02 10:29:08;;;;;;;;;;;;;;;;;;5132394;27;2025;-48
2023/04/02 10:31:53;;;;;;;;;;;;;;;;;;5115846;27;1722;-59
2023/04/02 10:34:24;;;;;;;;;;;;;;;;;;5132176;27;1843;-45
2023/04/02 10:36:57;;;;;;;;;;;;;;;;;;5131884;27;1963;-42
2023/04/02 10:39:24;;;;;;;;;;;;;;;;;;5132056;27;1843;-54
2023/04/02 10:42:11;;;;;;;;;;;;;;;;;;5131978;27;1881;-43
2023/04/02 10:44:51;;;;;;;;;;;;;;;;;;5124101;27;1915;-54
2023/04/02 10:47:31;;;;;;;;;;;;;;;;;;5132045;27;2059;-40
2023/04/02 10:50:02;;;;;;;;;;;;;;;;;;5131991;28;2052;-54
2023/04/02 10:52:32;;;;;;;;;;;;;;;;;;5131979;28;2080;-42
2023/04/02 10:55:26;;;;;;;;;;;;;;;;;;5132018;28;2058;-43
2023/04/02 10:57:56;;;;;;;;;;;;;;;;;;5129801;28;2244;-41
2023/04/02 11:00:26;;;;;;;;;;;;;;;;;;5131429;28;1952;-40
2023/04/02 11:03:04;;;;;;;;;;;;;;;;;;5131225;27;1858;-46
2023/04/02 11:05:39;;;;;;;;;;;;;;;;;;5131702;28;2066;-50
2023/04/02 11:08:14;;;;;;;;;;;;;;;;;;5131511;27;1555;-60
2023/04/02 11:10:45;;;;;;;;;;;;;;;;;;5131409;28;2033;-52
2023/04/02 11:13:12;;;;;;;;;;;;;;;;;;5150063;27;2050;-57
2023/04/02 11:15:39;;;;;;;;;;;;;;;;;;5152028;27;2179;-42
2023/04/02 11:18:18;;;;;;;;;;;;;;;;;;5152384;27;2022;-59
2023/04/02 11:20:48;;;;;;;;;;;;;;;;;;5152294;27;1907;-50
2023/04/02 11:23:16;;;;;;;;;;;;;;;;;;5152237;27;2081;-44
2023/04/02 11:25:44;;;;;;;;;;;;;;;;;;5151982;27;1997;-40
2023/04/02 11:28:13;;;;;;;;;;;;;;;;;;5152085;27;1953;-41
2023/04/02 11:30:41;;;;;;;;;;;;;;;;;;5152318;27;1979;-40
2023/04/02 11:33:34;;;;;;;;;;;;;;;;;;5152224;27;2154;-41
2023/04/02 11:36:27;;;;;;;;;;;;;;;;;;5154237;27;2101;-58
2023/04/02 11:38:54;;;;;;;;;;;;;;;;;;5156247;27;1912;-40
2023/04/02 11:41:49;;;;;;;;;;;;;;;;;;5156298;27;2063;-47
2023/04/02 11:44:23;;;;;;;;;;;;;;;;;;5156075;27;2012;-58
2023/04/02 11:46:50;;;;;;;;;;;;;;;;;;5155829;27;2097;-55
2023/04/02 11:49:38;;;;;;;;;;;;;;;;;;5155965;27;1932;-43
2023/04/02 11:52:26;;;;;;;;;;;;;;;;;;5155720;27;1828;-41
2023/04/02 11:54:56;;;;;;;;;;;;;;;;;;5155708;27;1997;-41
2023/04/02 11:57:35;;;;;;;;;;;;;;;;;;5136805;27;2039;-41
2023/04/02 12:00:14;;;;;;;;;;;;;;;;;;5151375;27;1991;-40
2023/04/02 12:02:43;;;;;;;;;;;;;;;;;;5155561;27;1891;-40
2023/04/02 12:05:29;;;;;;;;;;;;;;;;;;5155579;27;2039;-54
2023/04/02 12:07:56;;;;;;;;;;;;;;;;;;5155568;27;2070;-41
2023/04/02 12:10:33;;;;;;;;;;;;;;;;;;5155536;27;2342;-60
2023/04/02 12:13:00;;;;;;;;;;;;;;;;;;5155511;27;2265;-55
2023/04/02 12:15:33;;;;;;;;;;;;;;;;;;5155694;27;1990;-59
2023/04/02 12:18:18;;;;;;;;;;;;;;;;;;5155377;27;1975;-45
2023/04/02 12:20:47;;;;;;;;;;;;;;;;;;5155474;27;1972;-41
2023/04/02 12:23:17;;;;;;;;;;;;;;;;;;5155497;27;2018;-42
2023/04/02 12:25:50;;;;;;;;;;;;;;;;;;5155450;27;1966;-40
2023/04/02 12:28:18;;;;;;;;;;;;;;;;;;5155142;27;1979;-41
2023/04/02 12:30:46;;;;;;;;;;;;;;;;;;5155294;27;2091;-39
2023/04/02 12:33:17;;;;;;;;;;;;;;;;;;5155175;27;1954;-41
2023/04/02 12:35:46;;;;;;;;;;;;;;;;;;5154959;27;1941;-43
2023/04/02 12:38:20;;;;;;;;;;;;;;;;;;5154882;27;1756;-56
2023/04/02 12:40:53;;;;;;;;;;;;;;;;;;5136416;27;1956;-50
2023/04/02 12:43:23;;;;;;;;;;;;;;;;;;5154732;27;1924;-42
2023/04/02 12:45:51;;;;;;;;;;;;;;;;;;5154332;27;2007;-43
2023/04/02 12:48:18;;;;;;;;;;;;;;;;;;5154542;27;1922;-57
2023/04/02 12:50:46;;;;;;;;;;;;;;;;;;5154768;27;2124;-43
2023/04/02 12:53:21;;;;;;;;;;;;;;;;;;5154401;27;1785;-52
2023/04/02 12:55:50;;;;;;;;;;;;;;;;;;5149200;27;2208;-53
2023/04/02 12:58:23;;;;;;;;;;;;;;;;;;5133843;27;2114;-56
2023/04/02 13:00:50;;;;;;;;;;;;;;;;;;5132427;27;2065;-39
2023/04/02 13:03:19;;;;;;;;;;;;;;;;;;5133831;27;1981;-43
2023/04/02 13:05:49;;;;;;;;;;;;;;;;;;5133811;27;1855;-41
2023/04/02 13:08:26;;;;;;;;;;;;;;;;;;5114516;27;2464;-40
2023/04/02 13:10:55;;;;;;;;;;;;;;;;;;5133309;27;2040;-40
2023/04/02 13:13:31;;;;;;;;;;;;;;;;;;5133316;27;2020;-40
2023/04/02 13:16:00;;;;;;;;;;;;;;;;;;5133261;27;2092;-40
2023/04/02 13:18:27;;;;;;;;;;;;;;;;;;5133339;27;2068;-41
2023/04/02 13:20:56;;;;;;;;;;;;;;;;;;5133387;27;1901;-43
2023/04/02 13:23:29;;;;;;;;;;;;;;;;;;5133015;27;1873;-41
2023/04/02 13:26:17;;;;;;;;;;;;;;;;;;5133326;27;2046;-47
2023/04/02 13:29:18;;;;;;;;;;;;;;;;;;5140792;27;2053;-40
2023/04/02 13:31:45;;;;;;;;;;;;;;;;;;5154004;27;1985;-54
2023/04/02 13:34:12;;;;;;;;;;;;;;;;;;5153782;27;1862;-51
2023/04/02 13:36:40;;;;;;;;;;;;;;;;;;5134662;27;1944;-41
2023/04/02 13:39:07;;;;;;;;;;;;;;;;;;5153738;27;1870;-39
2023/04/02 13:41:45;;;;;;;;;;;;;;;;;;5153563;27;1786;-40
2023/04/02 13:44:18;;;;;;;;;;;;;;;;;;5134572;27;2136;-41
2023/04/02 13:46:45;;;;;;;;;;;;;;;;;;5153683;27;1880;-48
2023/04/02 13:49:12;;;;;;;;;;;;;;;;;;5153291;27;1964;-39
2023/04/02 13:51:43;;;;;;;;;;;;;;;;;;5152966;27;2027;-57
2023/04/02 13:54:14;;;;;;;;;;;;;;;;;;5153346;27;2150;-61
2023/04/02 13:56:42;;;;;;;;;;;;;;;;;;5131132;27;2105;-40
2023/04/02 13:59:09;;;;;;;;;;;;;;;;;;5131594;27;1968;-57
2023/04/02 14:01:39;;;;;;;;;;;;;;;;;;5132739;27;1845;-40
2023/04/02 14:04:06;;;;;;;;;;;;;;;;;;5132456;27;1897;-43
2023/04/02 14:06:40;;;;;;;;;;;;;;;;;;5131726;27;1959;-39
2023/04/02 14:09:07;;;;;;;;;;;;;;;;;;5132325;27;1940;-41
2023/04/02 14:11:37;;;;;;;;;;;;;;;;;;5132399;27;2047;-40
2023/04/02 14:14:26;;;;;;;;;;;;;;;;;;5132003;27;1892;-41
2023/04/02 14:17:03;;;;;;;;;;;;;;;;;;5131920;27;1951;-59
2023/04/02 14:19:33;;;;;;;;;;;;;;;;;;5132438;27;1738;-58
2023/04/02 14:22:00;;;;;;;;;;;;;;;;;;5132218;27;2018;-57
2023/04/02 14:24:38;;;;;;;;;;;;;;;;;;5132536;27;2094;-58
2023/04/02 14:27:21;;;;;;;;;;;;;;;;;;5132186;27;1881;-53
2023/04/02 14:30:14;;;;;;;;;;;;;;;;;;5131647;27;2220;-55
2023/04/02 14:32:50;;;;;;;;;;;;;;;;;;5130402;27;1524;-43
2023/04/02 14:35:23;;;;;;;;;;;;;;;;;;5132110;27;1957;-47
2023/04/02 14:38:14;;;;;;;;;;;;;;;;;;5131911;27;1814;-58
2023/04/02 14:40:54;;;;;;;;;;;;;;;;;;5112534;27;1647;-48
2023/04/02 14:43:23;;;;;;;;;;;;;;;;;;5131447;27;2168;-59
2023/04/02 14:45:58;;;;;;;;;;;;;;;;;;5131903;27;2008;-46
2023/04/02 14:48:29;;;;;;;;;;;;;;;;;;5131744;27;1916;-57
2023/04/02 14:51:20;;;;;;;;;;;;;;;;;;5131596;28;1973;-55
2023/04/02 14:53:50;;;;;;;;;;;;;;;;;;5144678;27;1925;-40
2023/04/02 14:56:20;;;;;;;;;;;;;;;;;;5142543;27;1911;-40
2023/04/02 14:58:51;;;;;;;;;;;;;;;;;;5131369;28;2038;-40
2023/04/02 15:01:26;;;;;;;;;;;;;;;;;;5131159;27;2080;-41
2023/04/02 15:04:01;;;;;;;;;;;;;;;;;;5132132;28;2024;-43
2023/04/02 15:06:34;;;;;;;;;;;;;;;;;;5131500;28;2017;-42
2023/04/02 15:09:25;;;;;;;;;;;;;;;;;;5131707;27;1923;-41
2023/04/02 15:12:00;;;;;;;;;;;;;;;;;;5129586;27;1905;-42
2023/04/02 15:14:34;;;;;;;;;;;;;;;;;;5135888;27;1979;-45
2023/04/02 15:17:01;;;;;;;;;;;;;;;;;;5135983;27;2123;-40
2023/04/02 15:19:28;;;;;;;;;;;;;;;;;;5135629;27;2151;-41
2023/04/02 15:21:55;;;;;;;;;;;;;;;;;;5135613;27;1398;-41
2023/04/02 15:24:39;;;;;;;;;;;;;;;;;;5136081;27;2082;-39
2023/04/02 15:27:31;;;;;;;;;;;;;;;;;;5135204;27;1763;-48
2023/04/02 15:29:59;;;;;;;;;;;;;;;;;;5130483;27;1986;-45
2023/04/02 15:32:32;;;;;;;;;;;;;;;;;;5146458;27;1912;-40
2023/04/02 15:35:18;;;;;;;;;;;;;;;;;;5155887;27;1855;-49
2023/04/02 15:38:06;;;;;;;;;;;;;;;;;;5156094;27;2038;-46
2023/04/02 15:40:52;;;;;;;;;;;;;;;;;;5156276;27;2028;-46
2023/04/02 15:43:22;;;;;;;;;;;;;;;;;;5155677;27;1914;-41
2023/04/02 15:45:50;;;;;;;;;;;;;;;;;;5155631;27;1796;-42
2023/04/02 15:48:36;;;;;;;;;;;;;;;;;;5139610;27;2185;-40
2023/04/02 15:51:26;;;;;;;;;;;;;;;;;;5134645;27;1909;-44
2023/04/02 15:54:02;;;;;;;;;;;;;;;;;;5129765;27;2091;-45
2023/04/02 15:56:31;;;;;;;;;;;;;;;;;;5145766;27;2073;-39
2023/04/02 15:58:59;;;;;;;;;;;;;;;;;;5155671;27;2005;-46
2023/04/02 16:01:36;;;;;;;;;;;;;;;;;;5155031;27;1992;-41
2023/04/02 16:04:21;;;;;;;;;;;;;;;;;;5155594;27;2109;-40
2023/04/02 16:06:59;;;;;;;;;;;;;;;;;;5155349;27;2052;-40
2023/04/02 16:09:29;;;;;;;;;;;;;;;;;;5153441;27;1694;-41
2023/04/02 16:12:19;;;;;;;;;;;;;;;;;;5153377;27;1911;-42
2023/04/02 16:14:48;;;;;;;;;;;;;;;;;;5153583;27;1664;-46
2023/04/02 16:17:20;;;;;;;;;;;;;;;;;;5153362;27;2025;-39
2023/04/02 16:19:55;;;;;;;;;;;;;;;;;;5153612;27;1864;-43
2023/04/02 16:22:27;;;;;;;;;;;;;;;;;;5152668;27;2186;-40
2023/04/02 16:25:05;;;;;;;;;;;;;;;;;;5155024;27;1809;-40
2023/04/02 16:27:41;;;;;;;;;;;;;;;;;;5134388;27;1913;-41
2023/04/02 16:30:26;;;;;;;;;;;;;;;;;;5134867;27;1974;-40
2023/04/02 16:33:02;;;;;;;;;;;;;;;;;;5134430;27;2075;-40
2023/04/02 16:35:48;;;;;;;;;;;;;;;;;;5134391;27;2006;-40
2023/04/02 16:38:34;;;;;;;;;;;;;;;;;;5134227;27;2052;-39
2023/04/02 16:41:08;;;;;;;;;;;;;;;;;;5134556;27;1908;-39
2023/04/02 16:43:47;;;;;;;;;;;;;;;;;;5134285;27;1728;-39
2023/04/02 16:46:21;;;;;;;;;;;;;;;;;;5133778;27;1767;-42
2023/04/02 16:49:04;;;;;;;;;;;;;;;;;;5134204;27;1688;-40
2023/04/02 16:51:40;;;;;;;;;;;;;;;;;;5134085;27;2208;-40
2023/04/02 16:54:09;;;;;;;;;;;;;;;;;;5133887;27;1741;-46
2023/04/02 16:56:42;;;;;;;;;;;;;;;;;;5146033;27;1937;-47
2023/04/02 16:59:17;;;;;;;;;;;;;;;;;;5154558;27;2042;-44
2023/04/02 17:01:44;;;;;;;;;;;;;;;;;;5154535;27;2092;-40
2023/04/02 17:04:29;;;;;;;;;;;;;;;;;;5154288;27;1855;-40
2023/04/02 17:07:11;;;;;;;;;;;;;;;;;;5154230;27;2160;-40
2023/04/02 17:09:48;;;;;;;;;;;;;;;;;;5154258;27;1961;-39
2023/04/02 17:12:20;;;;;;;;;;;;;;;;;;5154234;27;1910;-46
2023/04/02 17:15:10;;;;;;;;;;;;;;;;;;5154363;27;2021;-39
2023/04/02 17:17:52;;;;;;;;;;;;;;;;;;5130710;27;1890;-45
2023/04/02 17:20:21;;;;;;;;;;;;;;;;;;5153988;27;1854;-40
2023/04/02 17:22:49;;;;;;;;;;;;;;;;;;5154304;27;2066;-39
2023/04/02 17:25:20;;;;;;;;;;;;;;;;;;5153853;27;2024;-43
2023/04/02 17:27:49;;;;;;;;;;;;;;;;;;5153979;27;1904;-52
2023/04/02 17:30:18;;;;;;;;;;;;;;;;;;5153695;27;2135;-39
2023/04/02 17:32:46;;;;;;;;;;;;;;;;;;5153053;27;2037;-42
2023/04/02 17:35:21;;;;;;;;;;;;;;;;;;5153911;27;1790;-39
2023/04/02 17:37:53;;;;;;;;;;;;;;;;;;5153898;27;1986;-41
2023/04/02 17:40:25;;;;;;;;;;;;;;;;;;5153744;27;1901;-40
2023/04/02 17:43:01;;;;;;;;;;;;;;;;;;5153901;27;2034;-40
2023/04/02 17:45:38;;;;;;;;;;;;;;;;;;5153809;27;1957;-39
2023/04/02 17:48:17;;;;;;;;;;;;;;;;;;5153355;27;1982;-43
2023/04/02 17:51:03;;;;;;;;;;;;;;;;;;5153649;27;1775;-42
2023/04/02 17:53:36;;;;;;;;;;;;;;;;;;5153717;27;1851;-42